createdAt,value
2018-05-16T00:01:13.076Z,60.71
2018-05-16T00:03:41.545Z,61.33
2018-05-16T00:06:10.048Z,61.49
2018-05-16T00:08:38.569Z,61.48
2018-05-16T00:11:07.065Z,61.13
2018-05-16T00:13:35.582Z,60.83
2018-05-16T00:16:04.093Z,60.59
2018-05-16T00:18:32.579Z,61.05
2018-05-16T00:21:01.089Z,61.71
2018-05-16T00:23:29.560Z,61.93
2018-05-16T00:25:58.078Z,61.80
2018-05-16T00:28:26.566Z,61.43
2018-05-16T00:30:55.085Z,60.90
2018-05-16T00:33:23.564Z,60.52
2018-05-16T00:35:52.037Z,60.31
2018-05-16T00:38:20.544Z,60.75
2018-05-16T00:40:49.017Z,60.40
2018-05-16T00:43:17.517Z,60.38
2018-05-16T00:45:46.016Z,60.77
2018-05-16T00:48:14.496Z,60.15
2018-05-16T00:50:54.697Z,60.68
2018-05-16T00:53:23.216Z,62.00
2018-05-16T00:55:51.688Z,62.29
2018-05-16T00:58:20.195Z,61.68
2018-05-16T01:00:48.728Z,61.80
2018-05-16T01:03:17.262Z,61.66
2018-05-16T01:05:45.734Z,60.25
2018-05-16T01:08:14.242Z,60.00
2018-05-16T01:10:42.756Z,60.16
2018-05-16T01:13:11.244Z,60.98
2018-05-16T01:15:39.760Z,60.85
2018-05-16T01:18:08.276Z,60.80
2018-05-16T01:20:36.884Z,60.68
2018-05-16T01:23:05.416Z,61.21
2018-05-16T01:25:33.948Z,60.85
2018-05-16T01:28:02.448Z,60.95
2018-05-16T01:30:30.961Z,61.04
2018-05-16T01:32:59.440Z,61.21
2018-05-16T01:35:27.944Z,60.84
2018-05-16T01:37:56.452Z,60.52
2018-05-16T01:40:24.973Z,60.74
2018-05-16T01:42:53.532Z,60.09
2018-05-16T01:45:21.997Z,60.67
2018-05-16T01:47:50.517Z,60.21
2018-05-16T01:50:19.015Z,59.65
2018-05-16T01:52:47.495Z,59.89
2018-05-16T01:55:15.997Z,59.71
2018-05-16T01:57:44.505Z,59.71
2018-05-16T02:00:13.013Z,59.94
2018-05-16T02:02:41.542Z,60.37
2018-05-16T02:05:10.058Z,60.27
2018-05-16T02:07:38.538Z,59.65
2018-05-16T02:10:07.048Z,60.18
2018-05-16T02:12:35.536Z,60.32
2018-05-16T02:15:04.159Z,59.56
2018-05-16T02:17:32.637Z,59.39
2018-05-16T02:20:01.130Z,59.19
2018-05-16T02:22:29.661Z,59.15
2018-05-16T02:24:58.137Z,58.55
2018-05-16T02:27:26.616Z,58.92
2018-05-16T02:29:55.188Z,58.13
2018-05-16T02:32:23.715Z,57.78
2018-05-16T02:34:52.235Z,57.66
2018-05-16T02:37:20.815Z,57.42
2018-05-16T02:39:49.273Z,57.96
2018-05-16T02:42:17.765Z,57.42
2018-05-16T02:44:46.381Z,57.50
2018-05-16T02:47:14.817Z,58.40
2018-05-16T02:49:43.340Z,58.24
2018-05-16T02:52:11.817Z,57.53
2018-05-16T02:54:40.333Z,57.53
2018-05-16T02:57:08.833Z,57.33
2018-05-16T02:59:37.401Z,57.91
2018-05-16T03:02:05.882Z,58.10
2018-05-16T03:04:34.337Z,58.10
2018-05-16T03:07:02.860Z,58.11
2018-05-16T03:09:31.332Z,57.91
2018-05-16T03:11:59.845Z,58.06
2018-05-16T03:14:28.339Z,58.45
2018-05-16T03:16:56.856Z,58.37
2018-05-16T03:19:25.374Z,58.48
2018-05-16T03:21:53.896Z,59.32
2018-05-16T03:24:22.413Z,58.68
2018-05-16T03:26:50.929Z,58.57
2018-05-16T03:29:19.405Z,58.93
2018-05-16T03:31:47.900Z,59.63
2018-05-16T03:34:16.412Z,59.75
2018-05-16T03:36:44.911Z,59.65
2018-05-16T03:39:13.443Z,60.00
2018-05-16T03:41:41.933Z,60.42
2018-05-16T03:44:10.457Z,60.66
2018-05-16T03:46:38.940Z,60.71
2018-05-16T03:49:07.519Z,60.36
2018-05-16T03:51:35.992Z,60.15
2018-05-16T03:54:04.492Z,60.09
2018-05-16T03:56:33.016Z,60.04
2018-05-16T03:59:13.158Z,60.49
2018-05-16T04:01:53.181Z,59.89
2018-05-16T04:04:21.642Z,59.75
2018-05-16T04:06:50.164Z,59.05
2018-05-16T04:09:18.687Z,59.21
2018-05-16T04:11:47.206Z,60.47
2018-05-16T04:14:15.686Z,61.04
2018-05-16T04:16:44.213Z,60.88
2018-05-16T04:19:12.692Z,61.25
2018-05-16T04:21:41.250Z,61.80
2018-05-16T04:24:09.752Z,62.19
2018-05-16T04:26:38.276Z,62.52
2018-05-16T04:29:06.762Z,62.61
2018-05-16T04:31:35.276Z,63.10
2018-05-16T04:34:03.800Z,63.02
2018-05-16T04:36:32.292Z,62.58
2018-05-16T04:39:00.872Z,62.72
2018-05-16T04:41:29.397Z,62.38
2018-05-16T04:43:57.881Z,62.45
2018-05-16T04:46:26.369Z,60.82
2018-05-16T04:48:54.884Z,60.62
2018-05-16T04:51:23.390Z,60.15
2018-05-16T04:53:51.868Z,56.53
2018-05-16T04:56:20.384Z,56.20
2018-05-16T04:58:48.919Z,54.40
2018-05-16T05:01:17.441Z,53.05
2018-05-16T05:03:45.973Z,52.92
2018-05-16T05:06:15.146Z,51.33
2018-05-16T05:08:43.630Z,51.17
2018-05-16T05:11:12.153Z,51.12
2018-05-16T05:13:40.641Z,48.76
2018-05-16T05:16:09.179Z,48.43
2018-05-16T05:18:37.685Z,47.93
2018-05-16T05:21:06.197Z,47.15
2018-05-16T05:23:34.716Z,47.04
2018-05-16T05:26:03.208Z,46.70
2018-05-16T05:28:31.785Z,45.68
2018-05-16T05:31:00.278Z,45.45
2018-05-16T05:33:29.753Z,44.82
2018-05-16T05:35:58.240Z,44.52
2018-05-16T05:38:26.764Z,44.90
2018-05-16T05:40:55.277Z,45.96
2018-05-16T05:43:23.968Z,47.72
2018-05-16T05:45:52.409Z,47.17
2018-05-16T05:48:20.899Z,47.48
2018-05-16T05:50:49.455Z,47.34
2018-05-16T05:53:18.029Z,46.97
2018-05-16T05:55:46.570Z,46.92
2018-05-16T05:58:15.092Z,46.33
2018-05-16T06:00:43.591Z,45.96
2018-05-16T06:03:12.136Z,45.56
2018-05-16T06:05:40.709Z,44.64
2018-05-16T06:08:09.268Z,44.93
2018-05-16T06:10:37.774Z,43.27
2018-05-16T06:13:06.285Z,43.96
2018-05-16T06:15:34.771Z,42.89
2018-05-16T06:18:03.350Z,42.67
2018-05-16T06:20:31.825Z,41.02
2018-05-16T06:23:00.330Z,41.18
2018-05-16T06:25:28.856Z,41.02
2018-05-16T06:27:57.275Z,41.04
2018-05-16T06:30:25.716Z,40.35
2018-05-16T06:32:54.134Z,40.72
2018-05-16T06:35:22.860Z,41.72
2018-05-16T06:37:51.307Z,40.98
2018-05-16T06:40:19.692Z,40.08
2018-05-16T06:42:48.123Z,40.40
2018-05-16T06:45:16.547Z,40.50
2018-05-16T06:47:45.008Z,41.28
2018-05-16T06:50:13.519Z,41.09
2018-05-16T06:52:41.928Z,41.62
2018-05-16T06:55:10.372Z,41.96
2018-05-16T06:57:38.828Z,41.04
2018-05-16T07:00:07.244Z,41.71
2018-05-16T07:02:35.683Z,41.45
2018-05-16T07:05:04.185Z,40.72
2018-05-16T07:07:32.591Z,40.54
2018-05-16T07:10:01.070Z,40.87
2018-05-16T07:12:29.479Z,41.22
2018-05-16T07:14:57.942Z,41.42
2018-05-16T07:17:26.417Z,40.89
2018-05-16T07:19:55.180Z,40.38
2018-05-16T07:22:23.670Z,40.51
2018-05-16T07:24:52.109Z,39.51
2018-05-16T07:27:20.535Z,39.74
2018-05-16T07:29:48.962Z,38.86
2018-05-16T07:32:17.460Z,39.59
2018-05-16T07:34:45.916Z,37.92
2018-05-16T07:37:14.511Z,38.22
2018-05-16T07:39:42.963Z,37.67
2018-05-16T07:42:11.396Z,37.72
2018-05-16T07:44:39.867Z,37.53
2018-05-16T07:47:08.358Z,35.65
2018-05-16T07:49:36.768Z,36.05
2018-05-16T07:52:05.211Z,35.32
2018-05-16T07:54:33.672Z,36.24
2018-05-16T07:57:02.083Z,35.97
2018-05-16T07:59:30.624Z,36.41
2018-05-16T08:01:59.036Z,35.50
2018-05-16T08:04:27.491Z,36.07
2018-05-16T08:06:55.948Z,36.58
2018-05-16T08:09:24.354Z,37.57
2018-05-16T08:11:52.793Z,37.07
2018-05-16T08:14:21.200Z,36.64
2018-05-16T08:16:49.657Z,36.84
2018-05-16T08:19:18.046Z,37.30
2018-05-16T08:21:46.471Z,38.08
2018-05-16T08:24:14.946Z,37.40
2018-05-16T08:26:43.409Z,36.33
2018-05-16T08:29:11.868Z,36.16
2018-05-16T08:31:40.279Z,36.78
2018-05-16T08:34:08.692Z,37.50
2018-05-16T08:36:37.140Z,36.94
2018-05-16T08:39:05.632Z,36.55
2018-05-16T08:41:34.100Z,36.60
2018-05-16T08:44:02.532Z,36.67
2018-05-16T08:46:31.036Z,36.64
2018-05-16T08:48:59.475Z,35.84
2018-05-16T08:51:27.923Z,36.57
2018-05-16T08:53:56.371Z,34.72
2018-05-16T08:56:24.807Z,34.26
2018-05-16T08:58:53.248Z,34.36
2018-05-16T09:01:21.708Z,34.59
2018-05-16T09:03:50.163Z,34.00
2018-05-16T09:06:18.636Z,33.84
2018-05-16T09:08:47.141Z,34.84
2018-05-16T09:11:15.665Z,34.41
2018-05-16T09:13:44.120Z,34.39
2018-05-16T09:16:12.588Z,33.21
2018-05-16T09:18:41.019Z,33.21
2018-05-16T09:21:09.467Z,32.31
2018-05-16T09:23:37.917Z,30.89
2018-05-16T09:26:06.331Z,31.67
2018-05-16T09:28:34.777Z,33.33
2018-05-16T09:31:03.231Z,33.36
2018-05-16T09:33:31.677Z,32.99
2018-05-16T09:36:00.092Z,32.90
2018-05-16T09:38:28.536Z,33.49
2018-05-16T09:40:56.941Z,32.78
2018-05-16T09:43:25.444Z,33.01
2018-05-16T09:45:53.969Z,32.75
2018-05-16T09:48:22.518Z,34.58
2018-05-16T09:50:51.000Z,34.78
2018-05-16T09:53:19.663Z,34.82
2018-05-16T09:55:48.165Z,35.02
2018-05-16T09:58:16.640Z,35.96
2018-05-16T10:00:45.201Z,35.39
2018-05-16T10:03:13.676Z,34.84
2018-05-16T10:05:42.173Z,35.86
2018-05-16T10:08:10.645Z,35.92
2018-05-16T10:10:39.144Z,35.95
2018-05-16T10:13:07.558Z,35.28
2018-05-16T10:15:36.000Z,35.48
2018-05-16T10:18:04.429Z,34.68
2018-05-16T10:20:32.880Z,34.55
2018-05-16T10:23:01.324Z,34.51
2018-05-16T10:25:29.775Z,35.33
2018-05-16T10:27:58.195Z,34.70
2018-05-16T10:30:26.609Z,35.30
2018-05-16T10:32:55.073Z,35.57
2018-05-16T10:35:23.522Z,34.30
2018-05-16T10:37:51.927Z,33.12
2018-05-16T10:40:20.380Z,32.74
2018-05-16T10:42:48.847Z,32.80
2018-05-16T10:45:17.287Z,32.18
2018-05-16T10:47:45.683Z,32.87
2018-05-16T10:50:14.141Z,31.88
2018-05-16T10:52:42.547Z,31.60
2018-05-16T10:55:10.999Z,32.05
2018-05-16T10:57:39.404Z,32.05
2018-05-16T11:00:07.859Z,32.49
2018-05-16T11:02:36.265Z,32.67
2018-05-16T11:05:04.720Z,32.89
2018-05-16T11:07:33.153Z,32.95
2018-05-16T11:10:01.564Z,33.02
2018-05-16T11:12:29.981Z,33.20
2018-05-16T11:14:58.472Z,32.42
2018-05-16T11:17:26.895Z,32.61
2018-05-16T11:19:55.351Z,33.15
2018-05-16T11:22:23.850Z,32.39
2018-05-16T11:24:52.364Z,32.68
2018-05-16T11:27:21.760Z,32.08
2018-05-16T11:29:50.159Z,31.83
2018-05-16T11:32:18.596Z,31.90
2018-05-16T11:34:47.054Z,30.92
2018-05-16T11:37:15.590Z,31.12
2018-05-16T11:39:44.057Z,31.51
2018-05-16T11:42:12.564Z,30.78
2018-05-16T11:44:41.032Z,30.98
2018-05-16T11:47:09.657Z,31.09
2018-05-16T11:49:38.174Z,31.21
2018-05-16T11:52:06.640Z,30.35
2018-05-16T11:54:35.169Z,30.51
2018-05-16T11:57:03.748Z,30.74
2018-05-16T11:59:32.216Z,31.15
2018-05-16T12:02:00.744Z,29.74
2018-05-16T12:04:29.345Z,30.38
2018-05-16T12:06:57.959Z,29.81
2018-05-16T12:09:26.490Z,30.58
2018-05-16T12:11:54.961Z,30.80
2018-05-16T12:14:23.420Z,31.44
2018-05-16T12:16:51.988Z,29.92
2018-05-16T12:19:20.505Z,31.06
2018-05-16T12:21:49.038Z,29.32
2018-05-16T12:24:17.485Z,29.01
2018-05-16T12:26:45.989Z,29.25
2018-05-16T12:29:14.517Z,29.58
2018-05-16T12:31:43.074Z,29.35
2018-05-16T12:34:11.597Z,29.76
2018-05-16T12:36:40.195Z,28.68
2018-05-16T12:39:08.629Z,28.46
2018-05-16T12:41:37.171Z,28.44
2018-05-16T12:44:05.719Z,28.66
2018-05-16T12:46:34.205Z,29.21
2018-05-16T12:49:02.740Z,28.72
2018-05-16T12:51:31.239Z,27.90
2018-05-16T12:53:59.758Z,27.25
2018-05-16T12:56:28.227Z,28.59
2018-05-16T12:58:56.737Z,29.39
2018-05-16T13:01:25.263Z,28.88
2018-05-16T13:03:54.843Z,28.86
2018-05-16T13:06:23.335Z,29.84
2018-05-16T13:08:51.813Z,29.45
2018-05-16T13:11:20.321Z,29.30
2018-05-16T13:13:49.493Z,29.17
2018-05-16T13:16:17.982Z,27.95
2018-05-16T13:18:46.473Z,28.16
2018-05-16T13:21:14.980Z,28.65
2018-05-16T13:23:43.469Z,28.55
2018-05-16T13:26:11.992Z,28.56
2018-05-16T13:28:40.692Z,28.27
2018-05-16T13:31:09.348Z,29.08
2018-05-16T13:33:37.878Z,29.59
2018-05-16T13:36:06.388Z,29.02
2018-05-16T13:38:34.904Z,28.70
2018-05-16T13:41:03.443Z,27.40
2018-05-16T13:43:31.964Z,28.09
2018-05-16T13:46:00.446Z,27.50
2018-05-16T13:48:28.972Z,27.40
2018-05-16T13:50:57.497Z,28.00
2018-05-16T13:53:26.078Z,27.88
2018-05-16T13:55:54.512Z,28.06
2018-05-16T13:58:22.985Z,28.73
2018-05-16T14:00:51.728Z,27.11
2018-05-16T14:03:20.249Z,27.93
2018-05-16T14:05:48.724Z,27.46
2018-05-16T14:08:17.253Z,26.86
2018-05-16T14:10:45.764Z,27.25
2018-05-16T14:13:14.376Z,27.67
2018-05-16T14:15:42.956Z,27.79
2018-05-16T14:18:11.480Z,26.60
2018-05-16T14:20:40.173Z,27.22
2018-05-16T14:23:08.686Z,27.15
2018-05-16T14:25:37.203Z,26.88
2018-05-16T14:28:05.732Z,26.94
2018-05-16T14:30:34.209Z,26.79
2018-05-16T14:33:02.661Z,26.60
2018-05-16T14:35:31.174Z,26.31
2018-05-16T14:37:59.713Z,26.08
2018-05-16T14:40:28.260Z,27.47
2018-05-16T14:42:56.833Z,27.47
2018-05-16T14:45:25.292Z,26.85
2018-05-16T14:47:53.805Z,26.24
2018-05-16T14:50:22.346Z,26.82
2018-05-16T14:52:50.876Z,27.60
2018-05-16T14:55:19.355Z,27.35
2018-05-16T14:57:47.880Z,27.29
2018-05-16T15:00:16.364Z,27.54
2018-05-16T15:02:44.888Z,27.89
2018-05-16T15:05:13.364Z,27.37
2018-05-16T15:07:41.932Z,26.96
2018-05-16T15:10:10.430Z,27.08
2018-05-16T15:12:38.927Z,26.30
2018-05-16T15:15:07.435Z,26.74
2018-05-16T15:17:35.909Z,26.81
2018-05-16T15:20:04.444Z,26.98
2018-05-16T15:22:32.942Z,27.24
2018-05-16T15:25:01.481Z,27.47
2018-05-16T15:27:30.144Z,27.22
2018-05-16T15:29:58.621Z,26.89
2018-05-16T15:32:27.093Z,26.79
2018-05-16T15:34:55.611Z,26.83
2018-05-16T15:37:24.186Z,26.97
2018-05-16T15:39:52.712Z,27.41
2018-05-16T15:42:21.210Z,27.08
2018-05-16T15:44:49.717Z,27.87
2018-05-16T15:47:18.232Z,29.32
2018-05-16T15:49:46.795Z,29.27
2018-05-16T15:52:15.288Z,29.29
2018-05-16T15:54:43.808Z,29.61
2018-05-16T15:57:12.325Z,29.97
2018-05-16T15:59:40.852Z,29.88
2018-05-16T16:02:09.384Z,30.43
2018-05-16T16:04:37.905Z,30.35
2018-05-16T16:07:06.412Z,30.64
2018-05-16T16:09:35.617Z,30.41
2018-05-16T16:12:05.026Z,31.05
2018-05-16T16:14:33.557Z,30.84
2018-05-16T16:17:02.067Z,30.74
2018-05-16T16:19:30.543Z,30.82
2018-05-16T16:21:59.065Z,31.60
2018-05-16T16:24:27.555Z,32.19
2018-05-16T16:26:56.071Z,32.57
2018-05-16T16:29:24.589Z,33.04
2018-05-16T16:31:53.101Z,34.07
2018-05-16T16:34:21.620Z,34.56
2018-05-16T16:36:50.108Z,34.46
2018-05-16T16:39:18.620Z,34.87
2018-05-16T16:41:47.101Z,34.73
2018-05-16T16:44:15.608Z,34.72
2018-05-16T16:46:44.202Z,35.31
2018-05-16T16:49:12.757Z,36.20
2018-05-16T16:51:41.277Z,36.31
2018-05-16T16:54:09.816Z,36.50
2018-05-16T16:56:38.300Z,36.82
2018-05-16T16:59:06.805Z,36.79
2018-05-16T17:01:35.327Z,36.49
2018-05-16T17:04:03.840Z,36.42
2018-05-16T17:06:32.359Z,35.72
2018-05-16T17:09:00.923Z,35.67
2018-05-16T17:11:29.424Z,35.72
2018-05-16T17:13:57.957Z,36.11
2018-05-16T17:16:26.447Z,36.46
2018-05-16T17:18:54.901Z,35.86
2018-05-16T17:21:23.492Z,35.79
2018-05-16T17:23:51.973Z,36.19
2018-05-16T17:26:20.456Z,36.45
2018-05-16T17:28:49.632Z,36.75
2018-05-16T17:31:18.161Z,37.05
2018-05-16T17:33:46.641Z,37.43
2018-05-16T17:36:15.155Z,37.66
2018-05-16T17:38:43.643Z,37.57
2018-05-16T17:41:12.184Z,37.24
2018-05-16T17:43:40.701Z,36.95
2018-05-16T17:46:09.265Z,36.90
2018-05-16T17:48:37.745Z,38.07
2018-05-16T17:51:06.221Z,37.23
2018-05-16T17:53:34.737Z,37.24
2018-05-16T17:56:03.301Z,37.24
2018-05-16T17:58:31.821Z,37.38
2018-05-16T18:01:00.430Z,37.86
2018-05-16T18:03:28.853Z,38.37
2018-05-16T18:05:57.364Z,37.87
2018-05-16T18:08:25.828Z,38.35
2018-05-16T18:10:54.336Z,38.74
2018-05-16T18:16:42.137Z,38.78
2018-05-16T18:19:10.716Z,39.85
2018-05-16T18:21:39.232Z,40.06
2018-05-16T18:24:07.725Z,39.98
2018-05-16T18:26:36.245Z,40.72
2018-05-16T18:29:04.760Z,40.28
2018-05-16T18:31:33.234Z,40.28
2018-05-16T18:34:01.706Z,40.35
2018-05-16T18:36:30.208Z,40.53
2018-05-16T18:38:58.664Z,40.52
2018-05-16T18:41:27.177Z,40.47
2018-05-16T18:43:55.725Z,41.54
2018-05-16T18:46:24.193Z,41.28
2018-05-16T18:48:52.702Z,41.69
2018-05-16T18:51:21.192Z,42.24
2018-05-16T18:53:49.713Z,41.74
2018-05-16T18:56:18.202Z,41.71
2018-05-16T18:58:46.705Z,41.77
2018-05-16T19:01:15.234Z,41.37
2018-05-16T19:03:43.748Z,42.03
2018-05-16T19:06:12.270Z,42.17
2018-05-16T19:08:40.844Z,42.33
2018-05-16T19:11:09.283Z,42.56
2018-05-16T19:13:37.783Z,42.62
2018-05-16T19:16:06.279Z,42.24
2018-05-16T19:18:34.779Z,43.09
2018-05-16T19:21:03.303Z,41.83
2018-05-16T19:23:31.832Z,42.28
2018-05-16T19:26:00.353Z,41.80
2018-05-16T19:28:28.821Z,42.09
2018-05-16T19:30:57.324Z,40.95
2018-05-16T19:33:25.817Z,39.91
2018-05-16T19:35:54.348Z,39.63
2018-05-16T19:38:22.909Z,40.19
2018-05-16T19:40:51.412Z,40.61
2018-05-16T19:43:19.914Z,41.61
2018-05-16T19:45:48.412Z,42.52
2018-05-16T19:48:16.901Z,42.66
2018-05-16T19:50:45.420Z,42.97
2018-05-16T19:53:13.937Z,43.66
2018-05-16T19:55:42.406Z,43.86
2018-05-16T19:58:10.879Z,44.31
2018-05-16T20:00:39.391Z,45.31
2018-05-16T20:03:07.905Z,45.94
2018-05-16T20:05:36.368Z,45.44
2018-05-16T20:08:04.975Z,46.16
2018-05-16T20:10:33.476Z,46.26
2018-05-16T20:13:01.996Z,46.74
2018-05-16T20:15:30.560Z,46.95
2018-05-16T20:17:59.038Z,46.90
2018-05-16T20:20:27.548Z,47.08
2018-05-16T20:22:56.017Z,47.12
2018-05-16T20:25:24.527Z,47.23
2018-05-16T20:27:53.016Z,47.18
2018-05-16T20:30:21.517Z,47.14
2018-05-16T20:32:50.032Z,47.41
2018-05-16T20:35:18.551Z,47.52
2018-05-16T20:37:47.020Z,47.96
2018-05-16T20:40:15.534Z,48.24
2018-05-16T20:42:44.031Z,48.31
2018-05-16T20:45:12.639Z,47.98
2018-05-16T20:47:41.065Z,48.12
2018-05-16T20:50:09.541Z,48.29
2018-05-16T20:52:38.049Z,48.85
2018-05-16T20:55:06.515Z,49.23
2018-05-16T20:57:35.028Z,49.34
2018-05-16T21:00:03.609Z,49.70
2018-05-16T21:02:32.137Z,49.65
2018-05-16T21:05:00.612Z,49.99
2018-05-16T21:07:29.099Z,50.02
2018-05-16T21:09:57.605Z,50.46
2018-05-16T21:12:26.104Z,51.21
2018-05-16T21:14:54.609Z,51.17
2018-05-16T21:17:23.120Z,51.87
2018-05-16T21:19:51.634Z,52.49
2018-05-16T21:22:20.120Z,53.37
2018-05-16T21:24:48.625Z,53.99
2018-05-16T21:27:17.102Z,53.89
2018-05-16T21:29:45.605Z,53.58
2018-05-16T21:32:14.109Z,53.97
2018-05-16T21:34:42.621Z,53.67
2018-05-16T21:37:11.110Z,53.54
2018-05-16T21:39:39.618Z,53.05
2018-05-16T21:42:08.084Z,52.67
2018-05-16T21:44:36.611Z,52.58
2018-05-16T21:47:05.130Z,52.58
2018-05-16T21:49:33.593Z,52.96
2018-05-16T21:52:02.104Z,53.24
2018-05-16T21:54:30.573Z,53.47
2018-05-16T21:56:59.048Z,53.24
2018-05-16T21:59:27.557Z,53.61
2018-05-16T22:01:56.036Z,54.03
2018-05-16T22:04:24.584Z,54.20
2018-05-16T22:06:53.007Z,53.82
2018-05-16T22:09:21.461Z,54.51
2018-05-16T22:11:49.887Z,54.30
2018-05-16T22:14:18.312Z,54.33
2018-05-16T22:16:46.723Z,54.35
2018-05-16T22:19:15.204Z,54.50
2018-05-16T22:21:43.621Z,54.51
2018-05-16T22:24:12.036Z,54.54
2018-05-16T22:26:40.492Z,55.56
2018-05-16T22:29:08.902Z,55.04
2018-05-16T22:31:42.871Z,55.14
2018-05-16T22:34:16.768Z,54.98
2018-05-16T22:36:50.722Z,55.08
2018-05-16T22:39:24.782Z,55.72
2018-05-16T22:41:58.611Z,55.83
2018-05-16T22:44:33.520Z,56.06
2018-05-16T22:47:02.011Z,56.02
2018-05-16T22:49:30.468Z,56.31
2018-05-16T22:51:58.885Z,56.97
2018-05-16T22:54:27.414Z,56.88
2018-05-16T22:56:55.827Z,57.10
2018-05-16T22:59:24.297Z,57.61
2018-05-16T23:01:52.735Z,57.23
2018-05-16T23:04:21.140Z,57.14
2018-05-16T23:06:49.592Z,57.76
2018-05-16T23:09:17.995Z,57.63
2018-05-16T23:11:46.439Z,57.68
2018-05-16T23:14:14.950Z,57.74
2018-05-16T23:16:43.453Z,58.44
2018-05-16T23:19:11.925Z,58.35
2018-05-16T23:21:40.464Z,58.54
2018-05-16T23:24:08.943Z,58.44
2018-05-16T23:26:37.460Z,58.83
2018-05-16T23:29:05.967Z,58.77
2018-05-16T23:31:34.468Z,58.62
2018-05-16T23:34:02.945Z,58.21
2018-05-16T23:36:31.453Z,57.77
2018-05-16T23:38:59.932Z,58.07
2018-05-16T23:41:28.435Z,58.07
2018-05-16T23:43:56.914Z,57.97
2018-05-16T23:46:25.443Z,57.96
2018-05-16T23:48:53.912Z,58.34
2018-05-16T23:51:22.388Z,58.19
2018-05-16T23:53:50.900Z,58.20
2018-05-16T23:56:19.372Z,58.46
2018-05-16T23:58:47.896Z,58.56
